sensor_id;sensor_type;location;lat;lon;timestamp;temperature;humidity
35682;DHT22;21805;51.022;4.782;2023-06-05T00:02:11;17.70;99.90
35682;DHT22;21805;51.022;4.782;2023-06-05T00:04:36;17.70;99.90
35682;DHT22;21805;51.022;4.782;2023-06-05T00:07:04;17.60;99.90
35682;DHT22;21805;51.022;4.782;2023-06-05T00:09:30;17.60;99.90
35682;DHT22;21805;51.022;4.782;2023-06-05T00:11:56;17.50;99.90
35682;DHT22;21805;51.022;4.782;2023-06-05T00:14:21;17.50;99.90
35682;DHT22;21805;51.022;4.782;2023-06-05T00:16:47;17.50;99.90
35682;DHT22;21805;51.022;4.782;2023-06-05T00:19:12;17.50;99.90
35682;DHT22;21805;51.022;4.782;2023-06-05T00:21:38;17.50;99.90
35682;DHT22;21805;51.022;4.782;2023-06-05T00:24:04;17.40;99.90
35682;DHT22;21805;51.022;4.782;2023-06-05T00:26:29;17.40;99.90
35682;DHT22;21805;51.022;4.782;2023-06-05T00:28:55;17.40;99.90
35682;DHT22;21805;51.022;4.782;2023-06-05T00:31:20;17.40;99.90
35682;DHT22;21805;51.022;4.782;2023-06-05T00:33:47;17.40;99.90
35682;DHT22;21805;51.022;4.782;2023-06-05T00:36:13;17.20;99.90
35682;DHT22;21805;51.022;4.782;2023-06-05T00:38:38;17.20;99.90
35682;DHT22;21805;51.022;4.782;2023-06-05T00:41:04;17.10;99.90
35682;DHT22;21805;51.022;4.782;2023-06-05T00:43:30;17.10;99.90
35682;DHT22;21805;51.022;4.782;2023-06-05T00:46:01;17.10;99.90
35682;DHT22;21805;51.022;4.782;2023-06-05T00:48:28;17.10;99.90
35682;DHT22;21805;51.022;4.782;2023-06-05T00:50:55;17.00;99.90
35682;DHT22;21805;51.022;4.782;2023-06-05T00:53:22;17.00;99.90
35682;DHT22;21805;51.022;4.782;2023-06-05T00:55:48;17.00;99.90
35682;DHT22;21805;51.022;4.782;2023-06-05T00:58:14;16.90;99.90
35682;DHT22;21805;51.022;4.782;2023-06-05T01:00:40;16.90;99.90
35682;DHT22;21805;51.022;4.782;2023-06-05T01:03:06;16.80;99.90
35682;DHT22;21805;51.022;4.782;2023-06-05T01:05:34;16.70;99.90
35682;DHT22;21805;51.022;4.782;2023-06-05T01:08:02;16.70;99.90
35682;DHT22;21805;51.022;4.782;2023-06-05T01:10:30;16.40;99.90
35682;DHT22;21805;51.022;4.782;2023-06-05T01:15:21;16.40;99.90
35682;DHT22;21805;51.022;4.782;2023-06-05T01:17:57;16.30;99.90
35682;DHT22;21805;51.022;4.782;2023-06-05T01:20:37;16.30;99.90
35682;DHT22;21805;51.022;4.782;2023-06-05T01:23:06;16.20;99.90
35682;DHT22;21805;51.022;4.782;2023-06-05T01:25:32;16.20;99.90
35682;DHT22;21805;51.022;4.782;2023-06-05T01:28:09;16.20;99.90
35682;DHT22;21805;51.022;4.782;2023-06-05T01:30:44;16.10;99.90
35682;DHT22;21805;51.022;4.782;2023-06-05T01:33:33;16.10;99.90
35682;DHT22;21805;51.022;4.782;2023-06-05T01:36:10;16.10;99.90
35682;DHT22;21805;51.022;4.782;2023-06-05T01:38:36;16.20;99.90
35682;DHT22;21805;51.022;4.782;2023-06-05T01:41:03;16.10;99.90
35682;DHT22;21805;51.022;4.782;2023-06-05T01:43:30;16.00;99.90
35682;DHT22;21805;51.022;4.782;2023-06-05T01:45:56;16.00;99.90
35682;DHT22;21805;51.022;4.782;2023-06-05T01:48:24;16.00;99.90
35682;DHT22;21805;51.022;4.782;2023-06-05T01:50:57;15.90;99.90
35682;DHT22;21805;51.022;4.782;2023-06-05T01:53:24;15.80;99.90
35682;DHT22;21805;51.022;4.782;2023-06-05T01:55:49;15.90;99.90
35682;DHT22;21805;51.022;4.782;2023-06-05T01:58:18;15.90;99.90
35682;DHT22;21805;51.022;4.782;2023-06-05T02:00:44;15.80;99.90
35682;DHT22;21805;51.022;4.782;2023-06-05T02:03:10;15.70;99.90
35682;DHT22;21805;51.022;4.782;2023-06-05T02:05:36;15.80;99.90
35682;DHT22;21805;51.022;4.782;2023-06-05T02:08:01;15.70;99.90
35682;DHT22;21805;51.022;4.782;2023-06-05T02:10:30;15.70;99.90
35682;DHT22;21805;51.022;4.782;2023-06-05T02:12:56;15.60;99.90
35682;DHT22;21805;51.022;4.782;2023-06-05T02:15:22;15.60;99.90
35682;DHT22;21805;51.022;4.782;2023-06-05T02:17:48;15.60;99.90
35682;DHT22;21805;51.022;4.782;2023-06-05T02:20:19;15.60;99.90
35682;DHT22;21805;51.022;4.782;2023-06-05T02:22:45;15.50;99.90
35682;DHT22;21805;51.022;4.782;2023-06-05T02:25:10;15.50;99.90
35682;DHT22;21805;51.022;4.782;2023-06-05T02:27:36;15.40;99.90
35682;DHT22;21805;51.022;4.782;2023-06-05T02:30:02;15.40;99.90
35682;DHT22;21805;51.022;4.782;2023-06-05T02:32:28;15.30;99.90
35682;DHT22;21805;51.022;4.782;2023-06-05T02:34:55;15.20;99.90
35682;DHT22;21805;51.022;4.782;2023-06-05T02:37:22;15.20;99.90
35682;DHT22;21805;51.022;4.782;2023-06-05T02:39:48;15.30;99.90
35682;DHT22;21805;51.022;4.782;2023-06-05T02:42:14;15.30;99.90
35682;DHT22;21805;51.022;4.782;2023-06-05T02:44:39;15.30;99.90
35682;DHT22;21805;51.022;4.782;2023-06-05T02:47:06;15.20;99.90
35682;DHT22;21805;51.022;4.782;2023-06-05T02:49:31;15.10;99.90
35682;DHT22;21805;51.022;4.782;2023-06-05T02:51:58;15.20;99.90
35682;DHT22;21805;51.022;4.782;2023-06-05T02:54:24;15.20;99.90
35682;DHT22;21805;51.022;4.782;2023-06-05T02:56:50;15.20;99.90
35682;DHT22;21805;51.022;4.782;2023-06-05T02:59:16;15.20;99.90
35682;DHT22;21805;51.022;4.782;2023-06-05T03:01:41;15.20;99.90
35682;DHT22;21805;51.022;4.782;2023-06-05T03:04:08;15.10;99.90
35682;DHT22;21805;51.022;4.782;2023-06-05T03:06:34;15.00;99.90
35682;DHT22;21805;51.022;4.782;2023-06-05T03:09:00;14.90;99.90
35682;DHT22;21805;51.022;4.782;2023-06-05T03:11:27;14.90;99.90
35682;DHT22;21805;51.022;4.782;2023-06-05T03:13:53;15.00;99.90
35682;DHT22;21805;51.022;4.782;2023-06-05T03:16:19;15.00;99.90
35682;DHT22;21805;51.022;4.782;2023-06-05T03:18:44;15.10;99.90
35682;DHT22;21805;51.022;4.782;2023-06-05T03:21:11;15.00;99.90
35682;DHT22;21805;51.022;4.782;2023-06-05T03:23:37;15.00;99.90
35682;DHT22;21805;51.022;4.782;2023-06-05T03:26:02;14.90;99.90
35682;DHT22;21805;51.022;4.782;2023-06-05T03:28:28;15.00;99.90
35682;DHT22;21805;51.022;4.782;2023-06-05T03:30:54;14.90;99.90
35682;DHT22;21805;51.022;4.782;2023-06-05T03:33:20;14.90;99.90
35682;DHT22;21805;51.022;4.782;2023-06-05T03:35:45;14.90;99.90
35682;DHT22;21805;51.022;4.782;2023-06-05T03:38:12;14.80;99.90
35682;DHT22;21805;51.022;4.782;2023-06-05T03:40:38;14.90;99.90
35682;DHT22;21805;51.022;4.782;2023-06-05T03:43:07;14.90;99.90
35682;DHT22;21805;51.022;4.782;2023-06-05T03:45:33;14.80;99.90
35682;DHT22;21805;51.022;4.782;2023-06-05T03:47:59;14.80;99.90
35682;DHT22;21805;51.022;4.782;2023-06-05T03:50:25;14.70;99.90
35682;DHT22;21805;51.022;4.782;2023-06-05T03:52:56;14.70;99.90
35682;DHT22;21805;51.022;4.782;2023-06-05T03:55:31;14.70;99.90
35682;DHT22;21805;51.022;4.782;2023-06-05T03:58:09;14.80;99.90
35682;DHT22;21805;51.022;4.782;2023-06-05T04:03:08;14.70;99.90
35682;DHT22;21805;51.022;4.782;2023-06-05T04:05:40;14.70;99.90
35682;DHT22;21805;51.022;4.782;2023-06-05T04:08:09;14.70;99.90
35682;DHT22;21805;51.022;4.782;2023-06-05T04:10:35;14.70;99.90
35682;DHT22;21805;51.022;4.782;2023-06-05T04:13:00;14.80;99.90
35682;DHT22;21805;51.022;4.782;2023-06-05T04:15:26;14.80;99.90
35682;DHT22;21805;51.022;4.782;2023-06-05T04:17:52;14.80;99.90
35682;DHT22;21805;51.022;4.782;2023-06-05T04:20:18;14.80;99.90
35682;DHT22;21805;51.022;4.782;2023-06-05T04:22:44;14.90;99.90
35682;DHT22;21805;51.022;4.782;2023-06-05T04:25:10;14.90;99.90
35682;DHT22;21805;51.022;4.782;2023-06-05T04:27:37;14.90;99.90
35682;DHT22;21805;51.022;4.782;2023-06-05T04:30:06;15.00;99.90
35682;DHT22;21805;51.022;4.782;2023-06-05T04:32:33;15.00;99.90
35682;DHT22;21805;51.022;4.782;2023-06-05T04:35:00;15.00;99.90
35682;DHT22;21805;51.022;4.782;2023-06-05T04:37:26;15.10;99.90
35682;DHT22;21805;51.022;4.782;2023-06-05T04:39:53;15.20;99.90
35682;DHT22;21805;51.022;4.782;2023-06-05T04:42:18;15.20;99.90
35682;DHT22;21805;51.022;4.782;2023-06-05T04:44:44;15.10;99.90
35682;DHT22;21805;51.022;4.782;2023-06-05T04:47:10;15.20;99.90
35682;DHT22;21805;51.022;4.782;2023-06-05T04:49:35;15.20;99.90
35682;DHT22;21805;51.022;4.782;2023-06-05T04:52:01;15.30;99.90
35682;DHT22;21805;51.022;4.782;2023-06-05T04:54:27;15.40;99.90
35682;DHT22;21805;51.022;4.782;2023-06-05T04:56:54;15.50;99.90
35682;DHT22;21805;51.022;4.782;2023-06-05T04:59:19;15.50;99.90
35682;DHT22;21805;51.022;4.782;2023-06-05T05:01:45;15.60;99.90
35682;DHT22;21805;51.022;4.782;2023-06-05T05:04:12;15.60;99.90
35682;DHT22;21805;51.022;4.782;2023-06-05T05:06:38;15.50;99.90
35682;DHT22;21805;51.022;4.782;2023-06-05T05:09:05;15.30;99.90
35682;DHT22;21805;51.022;4.782;2023-06-05T05:11:30;15.30;99.90
35682;DHT22;21805;51.022;4.782;2023-06-05T05:13:56;15.30;99.90
35682;DHT22;21805;51.022;4.782;2023-06-05T05:16:21;15.40;99.90
35682;DHT22;21805;51.022;4.782;2023-06-05T05:18:47;15.60;99.90
35682;DHT22;21805;51.022;4.782;2023-06-05T05:21:13;15.60;99.90
35682;DHT22;21805;51.022;4.782;2023-06-05T05:23:39;15.70;99.90
35682;DHT22;21805;51.022;4.782;2023-06-05T05:26:06;15.70;99.90
35682;DHT22;21805;51.022;4.782;2023-06-05T05:28:32;15.80;99.90
35682;DHT22;21805;51.022;4.782;2023-06-05T05:30:57;15.80;99.90
35682;DHT22;21805;51.022;4.782;2023-06-05T05:33:24;15.70;99.90
35682;DHT22;21805;51.022;4.782;2023-06-05T05:35:49;15.70;99.90
35682;DHT22;21805;51.022;4.782;2023-06-05T05:38:15;15.80;99.90
35682;DHT22;21805;51.022;4.782;2023-06-05T05:40:41;15.90;99.90
35682;DHT22;21805;51.022;4.782;2023-06-05T05:43:07;15.90;99.90
35682;DHT22;21805;51.022;4.782;2023-06-05T05:45:33;16.10;99.90
35682;DHT22;21805;51.022;4.782;2023-06-05T05:47:58;16.20;99.90
35682;DHT22;21805;51.022;4.782;2023-06-05T05:50:24;16.30;99.90
35682;DHT22;21805;51.022;4.782;2023-06-05T05:52:50;16.40;99.90
35682;DHT22;21805;51.022;4.782;2023-06-05T05:55:18;16.40;99.90
35682;DHT22;21805;51.022;4.782;2023-06-05T05:57:43;16.50;99.90
35682;DHT22;21805;51.022;4.782;2023-06-05T06:00:09;16.50;99.90
35682;DHT22;21805;51.022;4.782;2023-06-05T06:02:38;16.70;99.90
35682;DHT22;21805;51.022;4.782;2023-06-05T06:05:06;16.70;99.90
35682;DHT22;21805;51.022;4.782;2023-06-05T06:07:32;16.80;99.90
35682;DHT22;21805;51.022;4.782;2023-06-05T06:09:57;16.90;99.90
35682;DHT22;21805;51.022;4.782;2023-06-05T06:12:23;17.00;99.90
35682;DHT22;21805;51.022;4.782;2023-06-05T06:14:50;17.00;99.90
35682;DHT22;21805;51.022;4.782;2023-06-05T06:17:15;17.00;99.90
35682;DHT22;21805;51.022;4.782;2023-06-05T06:19:41;17.10;99.90
35682;DHT22;21805;51.022;4.782;2023-06-05T06:22:07;17.20;99.90
35682;DHT22;21805;51.022;4.782;2023-06-05T06:24:40;17.30;99.90
35682;DHT22;21805;51.022;4.782;2023-06-05T06:27:06;17.20;99.90
35682;DHT22;21805;51.022;4.782;2023-06-05T06:29:33;17.40;99.90
35682;DHT22;21805;51.022;4.782;2023-06-05T06:31:59;17.70;99.90
35682;DHT22;21805;51.022;4.782;2023-06-05T06:34:25;18.00;99.90
35682;DHT22;21805;51.022;4.782;2023-06-05T06:36:50;18.10;99.90
35682;DHT22;21805;51.022;4.782;2023-06-05T06:39:16;18.30;99.90
35682;DHT22;21805;51.022;4.782;2023-06-05T06:41:41;18.50;99.90
35682;DHT22;21805;51.022;4.782;2023-06-05T06:44:07;18.40;99.90
35682;DHT22;21805;51.022;4.782;2023-06-05T06:46:33;18.50;99.90
35682;DHT22;21805;51.022;4.782;2023-06-05T06:48:58;18.60;99.90
35682;DHT22;21805;51.022;4.782;2023-06-05T06:51:24;18.50;99.90
35682;DHT22;21805;51.022;4.782;2023-06-05T06:53:50;18.70;99.90
35682;DHT22;21805;51.022;4.782;2023-06-05T06:56:16;18.80;99.90
35682;DHT22;21805;51.022;4.782;2023-06-05T06:58:43;18.60;99.90
35682;DHT22;21805;51.022;4.782;2023-06-05T07:01:09;18.70;99.90
35682;DHT22;21805;51.022;4.782;2023-06-05T07:03:36;18.90;99.90
35682;DHT22;21805;51.022;4.782;2023-06-05T07:06:02;19.00;99.90
35682;DHT22;21805;51.022;4.782;2023-06-05T07:08:27;19.10;99.90
35682;DHT22;21805;51.022;4.782;2023-06-05T07:10:53;19.30;99.90
35682;DHT22;21805;51.022;4.782;2023-06-05T07:13:22;19.30;99.90
35682;DHT22;21805;51.022;4.782;2023-06-05T07:15:48;19.40;99.90
35682;DHT22;21805;51.022;4.782;2023-06-05T07:18:14;19.40;99.90
35682;DHT22;21805;51.022;4.782;2023-06-05T07:20:39;19.20;99.90
35682;DHT22;21805;51.022;4.782;2023-06-05T07:23:05;19.40;99.90
35682;DHT22;21805;51.022;4.782;2023-06-05T07:25:31;19.50;99.90
35682;DHT22;21805;51.022;4.782;2023-06-05T07:27:57;19.20;99.90
35682;DHT22;21805;51.022;4.782;2023-06-05T07:30:28;19.10;99.90
35682;DHT22;21805;51.022;4.782;2023-06-05T07:32:53;19.30;99.90
35682;DHT22;21805;51.022;4.782;2023-06-05T07:35:19;19.20;99.90
35682;DHT22;21805;51.022;4.782;2023-06-05T07:37:44;19.30;99.90
35682;DHT22;21805;51.022;4.782;2023-06-05T07:40:10;19.50;99.90
35682;DHT22;21805;51.022;4.782;2023-06-05T07:42:36;19.70;99.90
35682;DHT22;21805;51.022;4.782;2023-06-05T07:45:01;19.90;99.90
35682;DHT22;21805;51.022;4.782;2023-06-05T07:47:27;20.10;99.90
35682;DHT22;21805;51.022;4.782;2023-06-05T07:49:59;20.40;99.90
35682;DHT22;21805;51.022;4.782;2023-06-05T07:52:26;20.70;99.90
35682;DHT22;21805;51.022;4.782;2023-06-05T07:54:52;20.30;99.90
35682;DHT22;21805;51.022;4.782;2023-06-05T07:57:17;20.50;99.90
35682;DHT22;21805;51.022;4.782;2023-06-05T07:59:43;20.70;99.90
35682;DHT22;21805;51.022;4.782;2023-06-05T08:02:09;20.40;99.90
35682;DHT22;21805;51.022;4.782;2023-06-05T08:04:34;20.30;99.90
35682;DHT22;21805;51.022;4.782;2023-06-05T08:07:00;20.50;99.90
35682;DHT22;21805;51.022;4.782;2023-06-05T08:09:27;20.80;99.90
35682;DHT22;21805;51.022;4.782;2023-06-05T08:11:53;21.00;99.90
35682;DHT22;21805;51.022;4.782;2023-06-05T08:14:18;21.00;99.90
35682;DHT22;21805;51.022;4.782;2023-06-05T08:16:44;20.70;99.90
35682;DHT22;21805;51.022;4.782;2023-06-05T08:19:10;21.00;99.90
35682;DHT22;21805;51.022;4.782;2023-06-05T08:21:36;21.10;99.90
35682;DHT22;21805;51.022;4.782;2023-06-05T08:24:02;21.20;99.90
35682;DHT22;21805;51.022;4.782;2023-06-05T08:26:28;21.40;99.90
35682;DHT22;21805;51.022;4.782;2023-06-05T08:28:53;21.40;99.90
35682;DHT22;21805;51.022;4.782;2023-06-05T08:31:19;21.50;99.90
35682;DHT22;21805;51.022;4.782;2023-06-05T08:33:45;21.70;99.90
35682;DHT22;21805;51.022;4.782;2023-06-05T08:36:12;21.90;99.90
35682;DHT22;21805;51.022;4.782;2023-06-05T08:38:38;22.10;99.90
35682;DHT22;21805;51.022;4.782;2023-06-05T08:41:04;22.30;99.90
35682;DHT22;21805;51.022;4.782;2023-06-05T08:43:39;22.40;99.90
35682;DHT22;21805;51.022;4.782;2023-06-05T08:46:05;22.40;99.90
35682;DHT22;21805;51.022;4.782;2023-06-05T08:48:32;22.40;99.90
35682;DHT22;21805;51.022;4.782;2023-06-05T08:50:58;22.40;99.90
35682;DHT22;21805;51.022;4.782;2023-06-05T08:53:23;22.40;99.90
35682;DHT22;21805;51.022;4.782;2023-06-05T08:55:53;22.50;99.90
35682;DHT22;21805;51.022;4.782;2023-06-05T08:58:19;22.70;99.90
35682;DHT22;21805;51.022;4.782;2023-06-05T09:00:44;22.40;99.90
35682;DHT22;21805;51.022;4.782;2023-06-05T09:03:10;22.40;99.90
35682;DHT22;21805;51.022;4.782;2023-06-05T09:05:38;22.50;99.90
35682;DHT22;21805;51.022;4.782;2023-06-05T09:08:04;22.40;99.90
35682;DHT22;21805;51.022;4.782;2023-06-05T09:10:30;22.40;99.90
35682;DHT22;21805;51.022;4.782;2023-06-05T09:12:56;22.50;99.90
35682;DHT22;21805;51.022;4.782;2023-06-05T09:15:23;22.50;99.90
35682;DHT22;21805;51.022;4.782;2023-06-05T09:18:01;22.70;99.90
35682;DHT22;21805;51.022;4.782;2023-06-05T09:20:27;22.60;99.90
35682;DHT22;21805;51.022;4.782;2023-06-05T09:22:54;23.00;99.90
35682;DHT22;21805;51.022;4.782;2023-06-05T09:25:20;23.40;99.90
35682;DHT22;21805;51.022;4.782;2023-06-05T09:27:59;23.80;99.90
35682;DHT22;21805;51.022;4.782;2023-06-05T09:30:30;24.10;99.90
35682;DHT22;21805;51.022;4.782;2023-06-05T09:32:58;24.30;99.90
35682;DHT22;21805;51.022;4.782;2023-06-05T09:35:33;24.30;99.90
35682;DHT22;21805;51.022;4.782;2023-06-05T09:37:58;24.10;99.90
35682;DHT22;21805;51.022;4.782;2023-06-05T09:40:38;24.20;99.90
35682;DHT22;21805;51.022;4.782;2023-06-05T09:43:12;24.20;99.90
35682;DHT22;21805;51.022;4.782;2023-06-05T09:45:44;24.40;99.90
35682;DHT22;21805;51.022;4.782;2023-06-05T09:48:13;24.50;99.90
35682;DHT22;21805;51.022;4.782;2023-06-05T09:50:40;24.70;99.90
35682;DHT22;21805;51.022;4.782;2023-06-05T09:53:06;24.90;99.60
35682;DHT22;21805;51.022;4.782;2023-06-05T09:55:33;25.10;99.80
35682;DHT22;21805;51.022;4.782;2023-06-05T09:57:59;24.90;99.10
35682;DHT22;21805;51.022;4.782;2023-06-05T10:00:25;24.80;99.80
35682;DHT22;21805;51.022;4.782;2023-06-05T10:02:54;24.90;99.90
35682;DHT22;21805;51.022;4.782;2023-06-05T10:05:20;24.70;98.90
35682;DHT22;21805;51.022;4.782;2023-06-05T10:10:19;24.80;98.50
35682;DHT22;21805;51.022;4.782;2023-06-05T10:12:44;25.00;98.90
35682;DHT22;21805;51.022;4.782;2023-06-05T10:15:11;25.30;98.90
35682;DHT22;21805;51.022;4.782;2023-06-05T10:17:38;25.50;98.30
35682;DHT22;21805;51.022;4.782;2023-06-05T10:20:08;25.70;97.80
35682;DHT22;21805;51.022;4.782;2023-06-05T10:22:35;25.60;97.10
35682;DHT22;21805;51.022;4.782;2023-06-05T10:25:03;25.60;96.20
35682;DHT22;21805;51.022;4.782;2023-06-05T10:30:25;25.70;98.40
35682;DHT22;21805;51.022;4.782;2023-06-05T10:40:35;26.90;94.30
35682;DHT22;21805;51.022;4.782;2023-06-05T10:45:46;26.70;95.60
35682;DHT22;21805;51.022;4.782;2023-06-05T10:48:12;26.50;94.70
35682;DHT22;21805;51.022;4.782;2023-06-05T10:50:37;26.40;95.00
35682;DHT22;21805;51.022;4.782;2023-06-05T10:53:03;26.10;94.00
35682;DHT22;21805;51.022;4.782;2023-06-05T10:55:40;26.00;94.80
35682;DHT22;21805;51.022;4.782;2023-06-05T11:00:38;26.80;96.20
35682;DHT22;21805;51.022;4.782;2023-06-05T11:03:04;26.50;94.60
35682;DHT22;21805;51.022;4.782;2023-06-05T11:05:31;26.50;93.10
35682;DHT22;21805;51.022;4.782;2023-06-05T11:08:13;26.40;93.90
35682;DHT22;21805;51.022;4.782;2023-06-05T11:13:24;26.40;94.30
35682;DHT22;21805;51.022;4.782;2023-06-05T11:15:50;26.70;95.00
35682;DHT22;21805;51.022;4.782;2023-06-05T11:18:26;26.50;94.40
35682;DHT22;21805;51.022;4.782;2023-06-05T11:20:52;26.70;94.90
35682;DHT22;21805;51.022;4.782;2023-06-05T11:23:21;27.10;93.90
35682;DHT22;21805;51.022;4.782;2023-06-05T11:25:55;27.30;93.10
35682;DHT22;21805;51.022;4.782;2023-06-05T11:28:42;27.50;93.90
35682;DHT22;21805;51.022;4.782;2023-06-05T11:31:08;27.60;91.80
35682;DHT22;21805;51.022;4.782;2023-06-05T11:33:34;27.40;93.10
35682;DHT22;21805;51.022;4.782;2023-06-05T11:38:28;27.10;92.40
35682;DHT22;21805;51.022;4.782;2023-06-05T11:40:54;26.90;92.10
35682;DHT22;21805;51.022;4.782;2023-06-05T11:43:23;26.80;92.90
35682;DHT22;21805;51.022;4.782;2023-06-05T11:45:53;26.90;92.40
35682;DHT22;21805;51.022;4.782;2023-06-05T11:48:19;27.20;93.00
35682;DHT22;21805;51.022;4.782;2023-06-05T11:50:52;27.30;92.00
35682;DHT22;21805;51.022;4.782;2023-06-05T11:53:20;27.30;91.50
35682;DHT22;21805;51.022;4.782;2023-06-05T11:55:47;27.50;91.70
35682;DHT22;21805;51.022;4.782;2023-06-05T11:58:25;27.40;91.70
35682;DHT22;21805;51.022;4.782;2023-06-05T12:00:51;27.50;91.10
35682;DHT22;21805;51.022;4.782;2023-06-05T12:03:21;27.40;90.70
35682;DHT22;21805;51.022;4.782;2023-06-05T12:05:47;27.70;91.60
35682;DHT22;21805;51.022;4.782;2023-06-05T12:08:30;27.70;90.60
35682;DHT22;21805;51.022;4.782;2023-06-05T12:11:02;27.80;90.70
35682;DHT22;21805;51.022;4.782;2023-06-05T12:13:44;28.20;92.80
35682;DHT22;21805;51.022;4.782;2023-06-05T12:16:10;28.30;90.60
35682;DHT22;21805;51.022;4.782;2023-06-05T12:18:36;28.30;91.00
35682;DHT22;21805;51.022;4.782;2023-06-05T12:21:02;28.70;90.10
35682;DHT22;21805;51.022;4.782;2023-06-05T12:23:31;29.10;92.20
35682;DHT22;21805;51.022;4.782;2023-06-05T12:26:01;28.80;87.10
35682;DHT22;21805;51.022;4.782;2023-06-05T12:28:29;29.00;87.60
35682;DHT22;21805;51.022;4.782;2023-06-05T12:30:55;29.00;85.80
35682;DHT22;21805;51.022;4.782;2023-06-05T12:33:21;29.00;86.90
35682;DHT22;21805;51.022;4.782;2023-06-05T12:36:02;28.80;83.60
35682;DHT22;21805;51.022;4.782;2023-06-05T12:38:29;28.70;85.90
35682;DHT22;21805;51.022;4.782;2023-06-05T12:40:54;28.50;85.70
35682;DHT22;21805;51.022;4.782;2023-06-05T12:43:21;28.70;86.90
35682;DHT22;21805;51.022;4.782;2023-06-05T12:45:53;28.80;86.60
35682;DHT22;21805;51.022;4.782;2023-06-05T12:48:20;28.70;85.00
35682;DHT22;21805;51.022;4.782;2023-06-05T12:50:46;28.70;87.00
35682;DHT22;21805;51.022;4.782;2023-06-05T12:53:14;28.80;88.70
35682;DHT22;21805;51.022;4.782;2023-06-05T12:55:40;28.90;84.60
35682;DHT22;21805;51.022;4.782;2023-06-05T12:58:06;28.80;90.00
35682;DHT22;21805;51.022;4.782;2023-06-05T13:00:32;29.00;86.40
35682;DHT22;21805;51.022;4.782;2023-06-05T13:03:00;29.10;86.40
35682;DHT22;21805;51.022;4.782;2023-06-05T13:05:27;29.10;90.30
35682;DHT22;21805;51.022;4.782;2023-06-05T13:07:54;29.50;86.10
35682;DHT22;21805;51.022;4.782;2023-06-05T13:10:21;29.80;87.20
35682;DHT22;21805;51.022;4.782;2023-06-05T13:12:47;29.80;85.70
35682;DHT22;21805;51.022;4.782;2023-06-05T13:15:13;29.90;85.60
35682;DHT22;21805;51.022;4.782;2023-06-05T13:17:42;29.80;87.00
35682;DHT22;21805;51.022;4.782;2023-06-05T13:20:08;29.90;85.40
35682;DHT22;21805;51.022;4.782;2023-06-05T13:22:36;30.10;83.30
35682;DHT22;21805;51.022;4.782;2023-06-05T13:25:04;30.10;82.30
35682;DHT22;21805;51.022;4.782;2023-06-05T13:27:30;30.10;86.60
35682;DHT22;21805;51.022;4.782;2023-06-05T13:29:56;30.40;85.50
35682;DHT22;21805;51.022;4.782;2023-06-05T13:32:23;30.70;84.60
35682;DHT22;21805;51.022;4.782;2023-06-05T13:34:49;30.30;80.90
35682;DHT22;21805;51.022;4.782;2023-06-05T13:37:16;30.10;80.60
35682;DHT22;21805;51.022;4.782;2023-06-05T13:39:41;30.10;81.80
35682;DHT22;21805;51.022;4.782;2023-06-05T13:42:09;30.30;82.40
35682;DHT22;21805;51.022;4.782;2023-06-05T13:44:38;30.60;86.00
35682;DHT22;21805;51.022;4.782;2023-06-05T13:47:04;30.80;80.90
35682;DHT22;21805;51.022;4.782;2023-06-05T13:49:39;30.30;83.40
35682;DHT22;21805;51.022;4.782;2023-06-05T13:52:05;30.20;82.80
35682;DHT22;21805;51.022;4.782;2023-06-05T13:54:33;30.10;84.20
35682;DHT22;21805;51.022;4.782;2023-06-05T13:56:59;29.70;81.30
35682;DHT22;21805;51.022;4.782;2023-06-05T13:59:25;29.90;83.00
35682;DHT22;21805;51.022;4.782;2023-06-05T14:01:53;30.10;85.30
35682;DHT22;21805;51.022;4.782;2023-06-05T14:04:19;30.40;82.00
35682;DHT22;21805;51.022;4.782;2023-06-05T14:06:46;30.50;80.90
35682;DHT22;21805;51.022;4.782;2023-06-05T14:09:11;30.60;83.60
35682;DHT22;21805;51.022;4.782;2023-06-05T14:11:38;30.40;83.30
35682;DHT22;21805;51.022;4.782;2023-06-05T14:14:11;30.60;84.80
35682;DHT22;21805;51.022;4.782;2023-06-05T14:16:38;30.80;80.10
35682;DHT22;21805;51.022;4.782;2023-06-05T14:21:33;30.60;81.10
35682;DHT22;21805;51.022;4.782;2023-06-05T14:23:59;30.30;80.10
35682;DHT22;21805;51.022;4.782;2023-06-05T14:26:25;30.60;81.40
35682;DHT22;21805;51.022;4.782;2023-06-05T14:28:54;30.60;83.30
35682;DHT22;21805;51.022;4.782;2023-06-05T14:31:20;30.40;81.40
35682;DHT22;21805;51.022;4.782;2023-06-05T14:33:56;30.50;80.30
35682;DHT22;21805;51.022;4.782;2023-06-05T14:36:23;30.50;80.30
35682;DHT22;21805;51.022;4.782;2023-06-05T14:38:56;30.10;80.00
35682;DHT22;21805;51.022;4.782;2023-06-05T14:41:23;30.20;81.40
35682;DHT22;21805;51.022;4.782;2023-06-05T14:43:52;30.30;83.10
35682;DHT22;21805;51.022;4.782;2023-06-05T14:46:17;30.50;83.10
35682;DHT22;21805;51.022;4.782;2023-06-05T14:48:45;30.70;79.70
35682;DHT22;21805;51.022;4.782;2023-06-05T14:51:12;30.90;79.70
35682;DHT22;21805;51.022;4.782;2023-06-05T14:56:09;30.70;79.10
35682;DHT22;21805;51.022;4.782;2023-06-05T14:58:35;30.40;79.70
35682;DHT22;21805;51.022;4.782;2023-06-05T15:01:06;30.10;78.80
35682;DHT22;21805;51.022;4.782;2023-06-05T15:03:32;30.30;79.30
35682;DHT22;21805;51.022;4.782;2023-06-05T15:05:59;30.40;80.50
35682;DHT22;21805;51.022;4.782;2023-06-05T15:08:29;30.40;80.80
35682;DHT22;21805;51.022;4.782;2023-06-05T15:10:58;30.30;80.70
35682;DHT22;21805;51.022;4.782;2023-06-05T15:13:25;30.30;81.70
35682;DHT22;21805;51.022;4.782;2023-06-05T15:15:51;30.40;81.60
35682;DHT22;21805;51.022;4.782;2023-06-05T15:18:20;29.90;80.50
35682;DHT22;21805;51.022;4.782;2023-06-05T15:20:48;29.80;80.90
35682;DHT22;21805;51.022;4.782;2023-06-05T15:23:14;29.70;82.30
35682;DHT22;21805;51.022;4.782;2023-06-05T15:25:42;29.70;84.20
35682;DHT22;21805;51.022;4.782;2023-06-05T15:28:11;29.90;89.10
35682;DHT22;21805;51.022;4.782;2023-06-05T15:30:37;29.90;80.30
35682;DHT22;21805;51.022;4.782;2023-06-05T15:33:04;29.90;83.40
35682;DHT22;21805;51.022;4.782;2023-06-05T15:35:30;30.00;82.80
35682;DHT22;21805;51.022;4.782;2023-06-05T15:37:56;30.00;83.40
35682;DHT22;21805;51.022;4.782;2023-06-05T15:40:22;30.00;85.30
35682;DHT22;21805;51.022;4.782;2023-06-05T15:43:02;29.70;81.90
35682;DHT22;21805;51.022;4.782;2023-06-05T15:47:59;29.30;85.30
35682;DHT22;21805;51.022;4.782;2023-06-05T15:50:25;28.90;83.50
35682;DHT22;21805;51.022;4.782;2023-06-05T15:52:53;28.90;83.60
35682;DHT22;21805;51.022;4.782;2023-06-05T15:55:20;28.70;84.10
35682;DHT22;21805;51.022;4.782;2023-06-05T15:57:52;28.40;84.00
35682;DHT22;21805;51.022;4.782;2023-06-05T16:00:21;28.40;84.20
35682;DHT22;21805;51.022;4.782;2023-06-05T16:02:50;28.10;86.90
35682;DHT22;21805;51.022;4.782;2023-06-05T16:05:18;28.10;88.60
35682;DHT22;21805;51.022;4.782;2023-06-05T16:10:12;27.70;86.50